Flight Track Log - Related Links

Times and Time Zones

All times are in EDT time to prevent confusion due to time zone crossing. See the N23540 flight status page for this flight to view local times or setup timezone preferences in your user account.

Time Position Orientation Groundspeed Altitude Reporting Facility
EDT Latitude Longitude Course Direction KTS MPH feet Rate Location/Type
Fri 11:24:54 AM 38.3450 -98.8586 244° Southwest 8,000  Level Kansas City Center
Fri 11:25:54 AM 38.3169 -98.9336 237° Southwest 134 154 4,200 -1,700 Descending Kansas City Center
Fri 11:26:54 AM 38.3036 -98.9594 244° Southwest 102 117 4,600 500 Climbing Kansas City Center
Fri 11:27:54 AM 38.2919 -98.9906 249° West 97 112 5,200 600 Climbing Kansas City Center
Fri 11:28:54 AM 38.2825 -99.0217 242° Southwest 97 112 5,800 350 Climbing Kansas City Center
Fri 11:29:54 AM 38.2686 -99.0553 242° Southwest 97 112 5,900 50 Climbing Kansas City Center
Fri 11:30:54 AM 38.2528 -99.0939 240° Southwest 104 120 5,900  Level Kansas City Center
Fri 11:31:54 AM 38.2367 -99.1300 249° West 118 136 5,900  Level Kansas City Center
Fri 11:32:54 AM 38.2247 -99.1689 239° Southwest 118 136 5,900  Level Kansas City Center
Fri 11:33:54 AM 38.2089 -99.2022 245° Southwest 118 136 5,900  Level Kansas City Center
Fri 11:34:54 AM 38.1947 -99.2408 242° Southwest 118 136 5,900  Level Kansas City Center
Fri 11:35:54 AM 38.1808 -99.2744 242° Southwest 118 136 5,900  Level Kansas City Center
Fri 11:36:54 AM 38.1669 -99.3078 243° Southwest 112 129 5,900  Level Kansas City Center
Fri 11:37:54 AM 38.1533 -99.3414 232° Southwest 112 129 5,900  Level Kansas City Center
Fri 11:38:54 AM 38.1331 -99.3742 225° Southwest 112 129 5,900  Level Kansas City Center
Fri 11:39:54 AM 38.1133 -99.3994 225° Southwest 112 129 5,900  Level Kansas City Center
Fri 11:40:54 AM 38.0936 -99.4244 231° Southwest 112 129 5,900  Level Kansas City Center
Fri 11:41:54 AM 38.0756 -99.4522 228° Southwest 107 123 5,900  Level Kansas City Center
Fri 11:42:54 AM 38.0578 -99.4775 229° Southwest 107 123 5,900  Level Kansas City Center
Fri 11:43:54 AM 38.0403 -99.5028 230° Southwest 107 123 5,900  Level Kansas City Center
Fri 11:44:54 AM 38.0200 -99.5331 231° Southwest 107 123 5,900  Level Kansas City Center
Fri 11:45:54 AM 38.0022 -99.5608 232° Southwest 107 123 5,900  Level Kansas City Center
Fri 11:46:54 AM 37.9867 -99.5861 230° Southwest 107 123 5,900  Level Kansas City Center
Fri 11:47:54 AM 37.9686 -99.6139 227° Southwest 107 123 5,900  Level Kansas City Center
Fri 11:48:54 AM 37.9467 -99.6439 228° Southwest 107 123 5,900  Level Kansas City Center
Fri 11:49:54 AM 37.9289 -99.6692 229° Southwest 107 123 5,900  Level Kansas City Center
Fri 11:50:54 AM 37.9133 -99.6917 232° Southwest 107 123 5,900  Level Kansas City Center
Fri 11:51:54 AM 37.8975 -99.7169 227° Southwest 107 123 5,900  Level Kansas City Center
Fri 11:52:54 AM 37.8775 -99.7444 233° Southwest 107 123 5,900  Level Kansas City Center
Fri 11:53:54 AM 37.8594 -99.7747 229° Southwest 107 123 5,900  Level Kansas City Center
Fri 11:54:54 AM 37.8439 -99.7975 237° Southwest 107 123 5,900  Level Kansas City Center
Fri 11:55:54 AM 37.8281 -99.8278 235° Southwest 102 117 5,900  Level Kansas City Center
Fri 11:56:54 AM 37.8142 -99.8531 222° Southwest 102 117 5,900  Level Kansas City Center
Fri 11:57:54 AM 37.7922 -99.8778 234° Southwest 102 117 5,900  Level Kansas City Center
Fri 11:58:54 AM 37.7789 -99.9006 234° Southwest 102 117 5,900  Level Kansas City Center
Fri 11:59:54 AM 37.7628 -99.9283 228° Southwest 102 117 5,900  Level Kansas City Center
Fri 12:00:54 PM 37.7450 -99.9533 225° Southwest 107 123 5,900  Level Kansas City Center
Fri 12:01:54 PM 37.7231 -99.9806 228° Southwest 107 123 5,900  Level Kansas City Center
Fri 12:02:54 PM 37.7050 -100.0060 230° Southwest 107 123 5,900  Level Kansas City Center
Fri 12:03:54 PM 37.6850 -100.0360 224° Southwest 107 123 5,900  Level Kansas City Center
Fri 12:04:54 PM 37.6650 -100.0600 231° Southwest 107 123 5,900  Level Kansas City Center
Fri 12:05:54 PM 37.6469 -100.0880 228° Southwest 107 123 5,900  Level Kansas City Center
Fri 12:06:54 PM 37.6314 -100.1100 230° Southwest 107 123 5,900 -50 Level Kansas City Center
Fri 12:07:54 PM 37.6111 -100.1400 231° Southwest 107 123 5,800 -50 Descending Kansas City Center
Fri 12:08:54 PM 37.5933 -100.1680 227° Southwest 107 123 5,800  Level Kansas City Center
Fri 12:09:54 PM 37.5753 -100.1920 234° Southwest 107 123 5,800  Level Kansas City Center
Fri 12:10:54 PM 37.5594 -100.2200 237° Southwest 107 123 5,800  Level Kansas City Center
Fri 12:11:54 PM 37.5433 -100.2510 233° Southwest 107 123 5,800 50 Level Kansas City Center
Fri 12:12:54 PM 37.5253 -100.2810 230° Southwest 107 123 5,900 100 Climbing Kansas City Center
Fri 12:13:54 PM 37.5072 -100.3080 228° Southwest 107 123 6,000 50 Climbing Kansas City Center
Fri 12:14:54 PM 37.4914 -100.3300 227° Southwest 107 123 6,000  Level Kansas City Center
Fri 12:15:54 PM 37.4669 -100.3630 221° Southwest 107 123 6,000  Level Kansas City Center
Fri 12:16:54 PM 37.4428 -100.3890 230° Southwest 107 123 6,000 -50 Level Kansas City Center
Fri 12:17:54 PM 37.4225 -100.4190 225° Southwest 107 123 5,900  Descending Kansas City Center
Fri 12:18:54 PM 37.4025 -100.4440 229° Southwest 107 123 6,000  Climbing Kansas City Center
Fri 12:19:54 PM 37.3800 -100.4760 227° Southwest 107 123 5,900 -50 Descending Kansas City Center
Fri 12:20:54 PM 37.3575 -100.5060 231° Southwest 112 129 5,900 50 Level Kansas City Center
Fri 12:21:54 PM 37.3372 -100.5380 224° Southwest 112 129 6,000  Climbing Kansas City Center
Fri 12:22:54 PM 37.3150 -100.5650 230° Southwest 118 136 5,900 -50 Descending Kansas City Center
Fri 12:23:54 PM 37.2900 -100.6020 230° Southwest 123 142 5,900 50 Level Kansas City Center
Fri 12:24:54 PM 37.2697 -100.6320 237° Southwest 128 147 6,000  Climbing Kansas City Center
Fri 12:25:54 PM 37.2514 -100.6670 230° Southwest 121 139 5,900 -50 Descending Kansas City Center
Fri 12:26:54 PM 37.2333 -100.6940 228° Southwest 121 139 5,900  Level Kansas City Center
Fri 12:27:54 PM 37.2083 -100.7290 232° Southwest 126 145 5,900  Level Kansas City Center
Fri 12:28:54 PM 37.1881 -100.7610 234° Southwest 126 145 5,900 50 Level Kansas City Center
Fri 12:29:54 PM 37.1697 -100.7930 233° Southwest 125 144 6,000 50 Climbing Kansas City Center
Fri 12:30:54 PM 37.1489 -100.8280 233° Southwest 125 144 6,000 -50 Level Kansas City Center
Fri 12:31:54 PM 37.1239 -100.8700 226° Southwest 125 144 5,900  Descending Kansas City Center
Fri 12:32:54 PM 37.1014 -100.8990 228° Southwest 125 144 6,000 50 Climbing Kansas City Center
Fri 12:33:54 PM 37.0764 -100.9340 224° Southwest 130 150 6,000  Level Kansas City Center
Fri 12:34:54 PM 37.0542 -100.9610 241° Southwest 135 155 6,000 -50 Level Kansas City Center
Fri 12:35:54 PM 37.0353 -101.0030 241° Southwest 128 147 5,900 -50 Descending Kansas City Center
Fri 12:36:54 PM 37.0186 -101.0410 242° Southwest 128 147 5,900  Level Kansas City Center
Fri 12:37:54 PM 37.0017 -101.0810 236° Southwest 128 147 5,900  Level Kansas City Center
Fri 12:38:54 PM 36.9831 -101.1160 239° Southwest 133 153 5,900  Level Kansas City Center
Fri 12:39:54 PM 36.9642 -101.1560 241° Southwest 133 153 5,900 50 Level Kansas City Center
Fri 12:40:54 PM 36.9475 -101.1930 233° Southwest 133 153 6,000 50 Climbing Kansas City Center
Fri 12:41:54 PM 36.9244 -101.2310 223° Southwest 138 159 6,000 300 Level Kansas City Center
Fri 12:42:54 PM 36.9067 -101.2520 228° Southwest 121 139 6,600 650 Climbing Kansas City Center
Fri 12:43:54 PM 36.8886 -101.2770 230° Southwest 98 113 7,300 550 Climbing Kansas City Center
Fri 12:44:54 PM 36.8725 -101.3010 224° Southwest 98 113 7,700 300 Climbing Kansas City Center
Fri 12:45:54 PM 36.8544 -101.3230 230° Southwest 91 105 7,900 100 Climbing Kansas City Center
Fri 12:46:54 PM 36.8364 -101.3500 230° Southwest 101 116 7,900  Level Kansas City Center
Fri 12:47:54 PM 36.8133 -101.3840 217° Southwest 115 132 7,900 63 Level Kansas City Center
Fri 12:48:30 PM 36.7986 -101.3980 233° Southwest 122 140 8,000 63 Climbing Albuquerque Center
Fri 12:49:30 PM 36.7736 -101.4390 233° Southwest 122 140 8,000  Level Albuquerque Center
Fri 12:50:30 PM 36.7544 -101.4710 236° Southwest 122 140 8,000  Level Albuquerque Center
Fri 12:51:30 PM 36.7353 -101.5060 234° Southwest 122 140 8,000  Level Albuquerque Center
Fri 12:52:30 PM 36.7158 -101.5390 237° Southwest 132 152 8,000  Level Albuquerque Center
Fri 12:53:30 PM 36.6950 -101.5790 227° Southwest 132 152 8,000  Level Albuquerque Center
Fri 12:54:30 PM 36.6694 -101.6130 227° Southwest 132 152 8,000  Level Albuquerque Center
Fri 12:55:30 PM 36.6458 -101.6450 228° Southwest 132 152 8,000  Level Albuquerque Center
Fri 12:56:30 PM 36.6244 -101.6750 230° Southwest 137 158 8,000  Level Albuquerque Center
Fri 12:57:30 PM 36.5992 -101.7130 228° Southwest 137 158 8,000  Level Albuquerque Center
Fri 12:58:30 PM 36.5736 -101.7490 230° Southwest 137 158 8,000  Level Albuquerque Center
Fri 12:59:30 PM 36.5522 -101.7810 235° Southwest 142 163 8,000  Level Albuquerque Center
Fri 01:00:30 PM 36.5292 -101.8220 235° Southwest 142 163 8,000  Level Albuquerque Center
Fri 01:01:30 PM 36.5097 -101.8570 233° Southwest 142 163 8,000  Level Albuquerque Center
Fri 01:02:30 PM 36.4864 -101.8950 237° Southwest 137 158 8,000  Level Albuquerque Center
Fri 01:03:30 PM 36.4672 -101.9320 233° Southwest 132 152 8,000  Level Albuquerque Center
Fri 01:04:30 PM 36.4458 -101.9670 231° Southwest 132 152 8,000  Level Albuquerque Center
Fri 01:05:30 PM 36.4225 -102.0030 232° Southwest 132 152 8,000  Level Albuquerque Center
Fri 01:06:30 PM 36.4011 -102.0370 231° Southwest 132 152 8,000  Level Albuquerque Center
Fri 01:07:30 PM 36.3775 -102.0730 230° Southwest 132 152 8,000  Level Albuquerque Center
Fri 01:08:30 PM 36.3542 -102.1080 234° Southwest 132 152 8,000  Level Albuquerque Center
Fri 01:09:30 PM 36.3328 -102.1450 230° Southwest 132 152 8,000  Level Albuquerque Center
Fri 01:10:30 PM 36.3114 -102.1770 231° Southwest 132 152 8,000 250 Level Albuquerque Center
Fri 01:11:30 PM 36.2897 -102.2100 236° Southwest 132 152 8,500 500 Climbing Albuquerque Center
Fri 01:12:30 PM 36.2742 -102.2390 234° Southwest 127 146 9,000 400 Climbing Albuquerque Center
Fri 01:13:30 PM 36.2586 -102.2660 228° Southwest 107 123 9,300 400 Climbing Albuquerque Center
Fri 01:14:30 PM 36.2350 -102.2990 246° West 111 128 9,800 400 Climbing Albuquerque Center
Fri 01:15:30 PM 36.2258 -102.3250 236° Southwest 99 114 10,100 99 Climbing Albuquerque Center
Fri 01:16:31 PM 36.2083 -102.3570 254° West 110 127 10,000 -50 Descending Albuquerque Center
Fri 01:17:30 PM 36.1994 -102.3960 226° Southwest 110 127 10,000  Level Albuquerque Center
Fri 01:18:30 PM 36.1756 -102.4260 228° Southwest 124 143 10,000  Level Albuquerque Center
Fri 01:19:30 PM 36.1500 -102.4610 225° Southwest 131 151 10,000  Level Albuquerque Center
Fri 01:20:30 PM 36.1242 -102.4930 231° Southwest 138 159 10,000  Level Albuquerque Center
Fri 01:21:30 PM 36.1044 -102.5230 237° Southwest 138 159 10,000  Level Albuquerque Center
Fri 01:22:30 PM 36.0853 -102.5600 251° West 132 152 10,000  Level Albuquerque Center
Fri 01:23:30 PM 36.0742 -102.5990 257° West 126 145 10,000  Level Albuquerque Center
Fri 01:24:30 PM 36.0672 -102.6360 253° West 121 139 10,000  Level Albuquerque Center
Fri 01:25:30 PM 36.0583 -102.6720 254° West 121 139 10,000  Level Albuquerque Center
Fri 01:26:30 PM 36.0494 -102.7110 255° West 116 133 10,000  Level Albuquerque Center
Fri 01:27:30 PM 36.0406 -102.7530 254° West 116 133 10,000  Level Albuquerque Center
Fri 01:28:30 PM 36.0317 -102.7920 257° West 121 139 10,000  Level Albuquerque Center
Fri 01:29:30 PM 36.0247 -102.8310 253° West 121 139 10,000  Level Albuquerque Center
Fri 01:30:30 PM 36.0156 -102.8670 256° West 126 145 10,000 50 Level Albuquerque Center
Fri 01:31:30 PM 36.0069 -102.9110 258° West 126 145 10,100  Climbing Albuquerque Center
Fri 01:32:30 PM 36.0000 -102.9500 257° West 131 151 10,000 -50 Descending Albuquerque Center
Fri 01:33:30 PM 35.9931 -102.9870 254° West 131 151 10,000  Level Albuquerque Center
Fri 01:34:30 PM 35.9839 -103.0260 252° West 126 145 10,000  Level Albuquerque Center
Fri 01:35:30 PM 35.9747 -103.0620 265° West 126 145 10,000  Level Albuquerque Center
Fri 01:36:30 PM 35.9719 -103.1010 257° West 126 145 10,000  Level Albuquerque Center
Fri 01:37:30 PM 35.9650 -103.1390 262° West 126 145 10,000  Level Albuquerque Center
Fri 01:38:30 PM 35.9603 -103.1830 262° West 126 145 10,000  Level Albuquerque Center
Fri 01:39:30 PM 35.9556 -103.2250 258° West 126 145 10,000  Level Albuquerque Center
Fri 01:40:30 PM 35.9486 -103.2660 262° West 121 139 10,000  Level Albuquerque Center
Fri 01:41:30 PM 35.9439 -103.3080 258° West 126 145 10,000  Level Albuquerque Center
Fri 01:42:30 PM 35.9369 -103.3490 264° West 126 145 10,000  Level Albuquerque Center
Fri 01:43:30 PM 35.9339 -103.3870 264° West 126 145 10,000  Level Albuquerque Center
Fri 01:44:30 PM 35.9308 -103.4240 260° West 126 145 10,000  Level Albuquerque Center
Fri 01:45:30 PM 35.9258 -103.4600 260° West 121 139 10,000  Level Albuquerque Center
Fri 01:46:30 PM 35.9208 -103.4960 260° West 121 139 10,000  Level Albuquerque Center
Fri 01:47:30 PM 35.9156 -103.5320 260° West 112 129 10,000  Level Albuquerque Center
Fri 01:48:30 PM 35.9106 -103.5680 256° West 107 123 10,000  Level Albuquerque Center
Fri 01:49:30 PM 35.9033 -103.6040 257° West 107 123 10,000  Level Albuquerque Center
Fri 01:50:30 PM 35.8961 -103.6410 264° West 107 123 10,000  Level Albuquerque Center
Fri 01:51:30 PM 35.8931 -103.6790 262° West 112 129 10,000  Level Albuquerque Center
Fri 01:52:30 PM 35.8881 -103.7210 260° West 118 136 10,000  Level Albuquerque Center
Fri 01:53:30 PM 35.8831 -103.7570 258° West 118 136 10,000  Level Albuquerque Center
Fri 01:54:30 PM 35.8758 -103.8010 261° West 124 143 10,000  Level Albuquerque Center
Fri 01:55:30 PM 35.8708 -103.8390 258° West 124 143 10,000  Level Albuquerque Center
Fri 01:56:30 PM 35.8636 -103.8810 265° West 124 143 10,000  Level Albuquerque Center
Fri 01:57:30 PM 35.8608 -103.9220 265° West 124 143 10,000  Level Albuquerque Center
Fri 01:58:30 PM 35.8578 -103.9630 259° West 124 143 10,000 -50 Level Albuquerque Center
Fri 01:59:30 PM 35.8506 -104.0070 262° West 124 143 9,900 -50 Descending Albuquerque Center
Fri 02:00:30 PM 35.8456 -104.0530 259° West 129 148 9,900 50 Level Albuquerque Center
Fri 02:01:30 PM 35.8386 -104.0990 263° West 141 162 10,000  Climbing Albuquerque Center
Fri 02:02:30 PM 35.8336 -104.1480 257° West 141 162 9,900 -50 Descending Albuquerque Center
Fri 02:03:30 PM 35.8244 -104.1980 256° West 141 162 9,900  Level Albuquerque Center
Fri 02:04:30 PM 35.8153 -104.2440 253° West 141 162 9,900  Level Albuquerque Center
Fri 02:05:30 PM 35.8039 -104.2910 256° West 146 168 9,900  Level Albuquerque Center
Fri 02:06:30 PM 35.7947 -104.3370 257° West 146 168 9,900  Level Albuquerque Center
Fri 02:07:30 PM 35.7856 -104.3860 255° West 146 168 9,900  Level Albuquerque Center
Fri 02:08:30 PM 35.7761 -104.4300 262° West 146 168 9,900  Level Albuquerque Center
Fri 02:09:30 PM 35.7708 -104.4740 257° West 140 161 9,900 50 Level Albuquerque Center
Fri 02:10:30 PM 35.7636 -104.5120 262° West 135 155 10,000  Climbing Albuquerque Center
Fri 02:11:30 PM 35.7583 -104.5610 263° West 129 148 9,900 -50 Descending Albuquerque Center
Fri 02:12:30 PM 35.7533 -104.6100 254° West 134 154 9,900  Level Albuquerque Center
Fri 02:13:30 PM 35.7439 -104.6510 255° West 139 160 9,900 50 Level Albuquerque Center
Fri 02:14:30 PM 35.7344 -104.6950 256° West 139 160 10,000  Climbing Albuquerque Center
Fri 02:15:30 PM 35.7250 -104.7410 254° West 139 160 9,900 -50 Descending Albuquerque Center
Fri 02:16:30 PM 35.7133 -104.7900 261° West 139 160 9,900 50 Level Albuquerque Center
Fri 02:17:30 PM 35.7081 -104.8310 257° West 144 166 10,000 50 Climbing Albuquerque Center
Fri 02:18:30 PM 35.6986 -104.8800 257° West 144 166 10,000  Level Albuquerque Center

Login

Don't have an account? Register now (free) for customized features, flight alerts, and more!